createdAt,value
2019-04-28T00:01:56.977Z,53.98
2019-04-28T00:04:23.729Z,53.73
2019-04-28T00:06:53.319Z,53.73
2019-04-28T00:09:21.265Z,53.79
2019-04-28T00:11:52.336Z,54.35
2019-04-28T00:14:22.750Z,54.60
2019-04-28T00:16:52.690Z,54.46
2019-04-28T00:19:20.889Z,54.69
2019-04-28T00:21:51.784Z,54.78
2019-04-28T00:24:21.093Z,55.29
2019-04-28T00:26:48.894Z,55.25
2019-04-28T00:29:18.594Z,54.89
2019-04-28T00:31:48.936Z,54.71
2019-04-28T00:34:15.490Z,54.88
2019-04-28T00:36:45.666Z,54.72
2019-04-28T00:39:13.660Z,55.00
2019-04-28T00:41:42.322Z,55.30
2019-04-28T00:44:11.912Z,55.24
2019-04-28T00:46:38.773Z,55.26
2019-04-28T00:49:12.255Z,55.29
2019-04-28T00:51:42.603Z,55.46
2019-04-28T00:54:12.149Z,55.21
2019-04-28T00:56:38.991Z,56.06
2019-04-28T00:59:06.657Z,55.96
2019-04-28T01:01:33.282Z,55.04
2019-04-28T01:04:02.066Z,55.38
2019-04-28T01:06:32.136Z,55.55
2019-04-28T01:09:01.408Z,55.44
2019-04-28T01:11:31.226Z,54.97
2019-04-28T01:13:59.319Z,54.61
2019-04-28T01:16:25.939Z,54.13
2019-04-28T01:18:54.034Z,53.48
2019-04-28T01:21:21.354Z,53.76
2019-04-28T01:23:50.086Z,53.31
2019-04-28T01:26:16.529Z,53.06
2019-04-28T01:28:43.403Z,53.44
2019-04-28T01:31:10.946Z,53.55
2019-04-28T01:33:41.181Z,53.95
2019-04-28T01:36:11.407Z,53.91
2019-04-28T01:38:42.061Z,53.90
2019-04-28T01:41:11.701Z,54.35
2019-04-28T01:43:43.574Z,54.22
2019-04-28T01:46:10.465Z,53.54
2019-04-28T01:48:39.756Z,53.71
2019-04-28T01:51:06.393Z,54.38
2019-04-28T01:53:34.021Z,53.92
2019-04-28T01:56:02.058Z,53.95
2019-04-28T01:58:30.823Z,53.97
2019-04-28T02:01:01.209Z,54.02
2019-04-28T02:03:28.015Z,53.90
2019-04-28T02:06:00.078Z,53.84
2019-04-28T02:08:25.255Z,53.97
2019-04-28T02:10:52.859Z,53.74
2019-04-28T02:13:22.985Z,53.85
2019-04-28T02:15:53.190Z,54.02
2019-04-28T02:18:21.116Z,53.52
2019-04-28T02:20:49.351Z,53.26
2019-04-28T02:23:16.411Z,53.47
2019-04-28T02:25:43.026Z,53.59
2019-04-28T02:28:12.048Z,53.86
2019-04-28T02:30:47.796Z,53.66
2019-04-28T02:33:13.545Z,53.47
2019-04-28T02:35:44.876Z,53.57
2019-04-28T02:38:12.595Z,53.65
2019-04-28T02:40:40.541Z,53.59
2019-04-28T02:43:07.789Z,53.92
2019-04-28T02:45:34.431Z,53.57
2019-04-28T02:48:03.856Z,53.59
2019-04-28T02:50:34.528Z,53.41
2019-04-28T02:53:01.853Z,53.48
2019-04-28T02:55:31.793Z,53.43
2019-04-28T03:01:02.709Z,53.45
2019-04-28T03:03:21.114Z,53.75
2019-04-28T03:05:51.015Z,53.65
2019-04-28T03:08:23.153Z,53.79
2019-04-28T03:10:50.852Z,53.93
2019-04-28T03:13:20.664Z,53.95
2019-04-28T03:15:51.267Z,54.05
2019-04-28T03:18:17.313Z,53.80
2019-04-28T03:20:44.910Z,53.75
2019-04-28T03:23:12.610Z,53.71
2019-04-28T03:25:41.343Z,53.59
2019-04-28T03:28:11.998Z,53.53
2019-04-28T03:30:43.840Z,53.83
2019-04-28T03:33:18.103Z,53.96
2019-04-28T03:35:43.851Z,54.27
2019-04-28T03:38:10.864Z,54.20
2019-04-28T03:40:41.593Z,54.11
2019-04-28T03:43:14.324Z,54.29
2019-04-28T03:45:41.024Z,54.10
2019-04-28T03:48:07.984Z,54.13
2019-04-28T03:50:34.568Z,54.33
2019-04-28T03:53:05.226Z,54.33
2019-04-28T03:55:34.931Z,54.25
2019-04-28T03:58:01.705Z,54.48
2019-04-28T04:00:31.162Z,54.54
2019-04-28T04:03:00.786Z,54.63
2019-04-28T04:05:30.615Z,54.91
2019-04-28T04:07:57.482Z,54.46
2019-04-28T04:10:24.815Z,54.34
2019-04-28T04:12:51.724Z,54.58
2019-04-28T04:15:21.370Z,54.61
2019-04-28T04:17:50.941Z,54.35
2019-04-28T04:20:16.100Z,53.99
2019-04-28T04:22:44.428Z,53.84
2019-04-28T04:25:13.520Z,53.93
2019-04-28T04:27:42.331Z,53.85
2019-04-28T04:30:37.735Z,52.57
2019-04-28T04:32:56.967Z,50.13
2019-04-28T04:35:24.651Z,49.23
2019-04-28T04:41:03.136Z,48.47
2019-04-28T04:43:21.063Z,47.77
2019-04-28T04:45:50.118Z,48.39
2019-04-28T04:48:16.949Z,47.60
2019-04-28T04:50:43.528Z,47.36
2019-04-28T04:53:11.035Z,47.21
2019-04-28T04:55:40.567Z,47.35
2019-04-28T04:58:10.713Z,47.29
2019-04-28T05:00:40.454Z,48.20
2019-04-28T05:03:07.600Z,48.37
2019-04-28T05:05:36.300Z,47.68
2019-04-28T05:08:03.194Z,46.37
2019-04-28T05:10:32.183Z,46.05
2019-04-28T05:13:02.389Z,46.19
2019-04-28T05:15:30.403Z,46.42
2019-04-28T05:18:00.869Z,46.73
2019-04-28T05:20:27.462Z,45.18
2019-04-28T05:22:56.670Z,44.12
2019-04-28T05:25:28.487Z,44.35
2019-04-28T05:27:54.519Z,42.99
2019-04-28T05:30:21.715Z,41.92
2019-04-28T05:32:56.056Z,42.96
2019-04-28T05:35:23.111Z,41.59
2019-04-28T05:37:49.522Z,41.51
2019-04-28T05:40:18.204Z,41.31
2019-04-28T05:42:49.730Z,40.77
2019-04-28T05:45:17.638Z,40.74
2019-04-28T05:47:50.176Z,40.41
2019-04-28T05:50:19.663Z,37.89
2019-04-28T05:52:50.196Z,38.61
2019-04-28T05:55:15.580Z,37.54
2019-04-28T05:57:43.412Z,37.14
2019-04-28T06:00:11.239Z,36.57
2019-04-28T06:02:39.671Z,37.07
2019-04-28T06:05:10.075Z,37.29
2019-04-28T06:07:40.538Z,36.84
2019-04-28T06:10:10.145Z,36.42
2019-04-28T06:12:40.400Z,37.66
2019-04-28T06:15:11.753Z,37.60
2019-04-28T06:17:41.154Z,37.47
2019-04-28T06:20:07.844Z,37.01
2019-04-28T06:22:34.434Z,37.48
2019-04-28T06:25:01.460Z,36.39
2019-04-28T06:27:32.663Z,36.52
2019-04-28T06:30:05.375Z,37.00
2019-04-28T06:32:34.273Z,36.29
2019-04-28T06:35:03.189Z,36.36
2019-04-28T06:37:33.114Z,35.68
2019-04-28T06:40:08.809Z,36.96
2019-04-28T06:42:38.722Z,36.29
2019-04-28T06:45:05.396Z,36.66
2019-04-28T06:47:32.175Z,35.95
2019-04-28T06:50:07.372Z,36.00
2019-04-28T06:52:29.818Z,36.61
2019-04-28T06:54:56.684Z,36.30
2019-04-28T06:57:25.655Z,36.67
2019-04-28T06:59:57.777Z,35.67
2019-04-28T07:02:37.630Z,34.78
2019-04-28T07:05:02.035Z,35.23
2019-04-28T07:07:29.689Z,35.22
2019-04-28T07:12:59.976Z,34.63
2019-04-28T07:15:20.199Z,35.68
2019-04-28T07:17:48.117Z,35.00
2019-04-28T07:20:17.723Z,34.62
2019-04-28T07:22:52.397Z,34.67
2019-04-28T07:25:17.894Z,35.11
2019-04-28T07:27:51.733Z,35.79
2019-04-28T07:30:25.599Z,32.90
2019-04-28T07:32:56.290Z,34.00
2019-04-28T07:35:23.237Z,32.88
2019-04-28T07:37:49.922Z,34.06
2019-04-28T07:40:21.863Z,33.89
2019-04-28T07:42:51.890Z,34.46
2019-04-28T07:45:19.415Z,33.45
2019-04-28T07:47:48.122Z,32.58
2019-04-28T07:50:17.750Z,32.23
2019-04-28T07:52:44.718Z,32.74
2019-04-28T07:55:11.355Z,32.52
2019-04-28T07:57:38.129Z,33.11
2019-04-28T08:00:07.368Z,32.25
2019-04-28T08:02:35.229Z,32.69
2019-04-28T08:05:03.858Z,33.49
2019-04-28T08:07:30.577Z,33.36
2019-04-28T08:09:57.162Z,33.48
2019-04-28T08:12:24.036Z,33.86
2019-04-28T08:14:50.659Z,33.38
2019-04-28T08:17:17.638Z,33.39
2019-04-28T08:19:44.187Z,34.14
2019-04-28T08:22:10.803Z,34.01
2019-04-28T08:24:37.406Z,34.01
2019-04-28T08:27:04.095Z,34.85
2019-04-28T08:29:30.972Z,33.93
2019-04-28T08:31:57.604Z,33.98
2019-04-28T08:34:25.745Z,33.50
2019-04-28T08:36:52.354Z,33.67
2019-04-28T08:39:18.949Z,33.47
2019-04-28T08:41:47.233Z,34.06
2019-04-28T08:44:14.002Z,33.94
2019-04-28T08:46:40.848Z,33.23
2019-04-28T08:49:07.656Z,33.16
2019-04-28T08:51:37.155Z,33.49
2019-04-28T08:54:03.763Z,32.81
2019-04-28T08:56:32.430Z,33.56
2019-04-28T08:59:00.954Z,33.43
2019-04-28T09:01:27.635Z,33.47
2019-04-28T09:03:56.543Z,33.35
2019-04-28T09:06:23.358Z,33.27
2019-04-28T09:08:50.574Z,33.16
2019-04-28T09:11:20.665Z,32.68
2019-04-28T09:13:47.232Z,32.11
2019-04-28T09:16:14.030Z,31.42
2019-04-28T09:18:41.886Z,31.55
2019-04-28T09:21:10.532Z,31.10
2019-04-28T09:23:37.470Z,31.54
2019-04-28T09:26:08.040Z,30.98
2019-04-28T09:28:34.615Z,30.33
2019-04-28T09:31:01.239Z,31.19
2019-04-28T09:33:30.325Z,30.68
2019-04-28T09:35:59.849Z,30.64
2019-04-28T09:38:26.455Z,31.39
2019-04-28T09:40:53.026Z,31.80
2019-04-28T09:43:19.654Z,31.39
2019-04-28T09:45:46.528Z,31.17
2019-04-28T09:48:13.109Z,32.01
2019-04-28T09:50:42.227Z,30.78
2019-04-28T09:53:08.829Z,31.37
2019-04-28T09:55:38.260Z,31.26
2019-04-28T09:58:07.350Z,30.50
2019-04-28T10:00:34.407Z,30.60
2019-04-28T10:03:05.097Z,31.05
2019-04-28T10:05:31.987Z,31.07
2019-04-28T10:07:59.453Z,30.37
2019-04-28T10:10:28.842Z,30.30
2019-04-28T10:12:57.549Z,30.35
2019-04-28T10:15:24.885Z,31.14
2019-04-28T10:17:51.475Z,31.00
2019-04-28T10:20:18.126Z,30.30
2019-04-28T10:22:45.736Z,30.52
2019-04-28T10:25:14.735Z,30.28
2019-04-28T10:27:43.239Z,30.56
2019-04-28T10:30:11.922Z,30.73
2019-04-28T10:32:41.253Z,29.86
2019-04-28T10:35:09.904Z,30.36
2019-04-28T10:37:39.861Z,30.37
2019-04-28T10:40:06.474Z,30.73
2019-04-28T10:42:33.379Z,29.77
2019-04-28T10:45:00.019Z,30.87
2019-04-28T10:47:26.608Z,30.49
2019-04-28T10:49:53.213Z,29.68
2019-04-28T10:52:20.102Z,30.01
2019-04-28T10:54:46.968Z,30.50
2019-04-28T10:57:13.587Z,31.29
2019-04-28T10:59:40.180Z,30.59
2019-04-28T11:02:06.895Z,30.45
2019-04-28T11:04:33.505Z,29.09
2019-04-28T11:07:00.092Z,29.84
2019-04-28T11:09:30.682Z,29.48
2019-04-28T11:11:55.011Z,30.28
2019-04-28T11:14:21.601Z,30.54
2019-04-28T11:16:48.209Z,29.67
2019-04-28T11:19:14.951Z,29.97
2019-04-28T11:21:41.554Z,29.81
2019-04-28T11:24:08.148Z,29.72
2019-04-28T11:26:35.038Z,30.43
2019-04-28T11:29:01.927Z,30.04
2019-04-28T11:31:28.507Z,28.46
2019-04-28T11:33:55.119Z,29.07
2019-04-28T11:36:21.846Z,28.99
2019-04-28T11:38:48.699Z,28.68
2019-04-28T11:41:15.335Z,29.43
2019-04-28T11:43:43.161Z,28.69
2019-04-28T11:46:09.746Z,28.44
2019-04-28T11:48:36.416Z,29.26
2019-04-28T11:51:03.001Z,29.90
2019-04-28T11:53:29.592Z,29.01
2019-04-28T11:55:57.288Z,29.31
2019-04-28T11:58:23.870Z,29.53
2019-04-28T12:00:50.470Z,29.74
2019-04-28T12:03:17.742Z,29.34
2019-04-28T12:05:44.579Z,29.40
2019-04-28T12:08:14.079Z,29.13
2019-04-28T12:10:41.041Z,27.76
2019-04-28T12:13:07.966Z,28.82
2019-04-28T12:15:34.820Z,29.59
2019-04-28T12:18:01.783Z,28.90
2019-04-28T12:20:28.645Z,29.04
2019-04-28T12:22:55.234Z,30.10
2019-04-28T12:25:23.612Z,28.27
2019-04-28T12:27:52.507Z,29.32
2019-04-28T12:30:21.700Z,28.98
2019-04-28T12:32:48.087Z,29.14
2019-04-28T12:35:18.436Z,28.22
2019-04-28T12:37:43.340Z,29.11
2019-04-28T12:40:12.143Z,28.41
2019-04-28T12:42:39.980Z,28.76
2019-04-28T12:45:09.301Z,30.11
2019-04-28T12:47:40.218Z,29.13
2019-04-28T12:50:07.145Z,29.34
2019-04-28T12:52:34.036Z,29.88
2019-04-28T12:55:03.353Z,29.14
2019-04-28T12:57:31.495Z,28.63
2019-04-28T12:59:59.647Z,28.58
2019-04-28T13:02:28.838Z,29.40
2019-04-28T13:04:58.336Z,29.02
2019-04-28T13:07:25.189Z,28.87
2019-04-28T13:09:53.119Z,27.65
2019-04-28T13:12:22.526Z,27.36
2019-04-28T13:14:49.372Z,28.34
2019-04-28T13:17:24.317Z,27.63
2019-04-28T13:19:49.687Z,28.45
2019-04-28T13:22:16.608Z,28.97
2019-04-28T13:24:46.116Z,28.69
2019-04-28T13:27:12.911Z,29.79
2019-04-28T13:29:39.752Z,27.88
2019-04-28T13:32:07.638Z,28.63
2019-04-28T13:34:34.522Z,28.91
2019-04-28T13:37:02.593Z,28.77
2019-04-28T13:39:32.816Z,27.27
2019-04-28T13:42:01.986Z,27.62
2019-04-28T13:44:28.844Z,27.35
2019-04-28T13:46:59.758Z,27.97
2019-04-28T13:49:29.079Z,28.90
2019-04-28T13:51:55.161Z,28.71
2019-04-28T13:54:25.866Z,27.25
2019-04-28T13:56:53.819Z,26.68
2019-04-28T13:59:24.067Z,26.95
2019-04-28T14:01:50.941Z,27.06
2019-04-28T14:04:20.376Z,26.57
2019-04-28T14:06:49.191Z,26.61
2019-04-28T14:09:16.744Z,27.36
2019-04-28T14:11:44.953Z,26.95
2019-04-28T14:14:15.596Z,27.15
2019-04-28T14:16:46.258Z,26.30
2019-04-28T14:19:17.080Z,25.09
2019-04-28T14:21:43.952Z,28.25
2019-04-28T14:24:10.874Z,25.30
2019-04-28T14:26:40.338Z,25.21
2019-04-28T14:29:10.012Z,26.01
2019-04-28T14:31:43.861Z,26.28
2019-04-28T14:34:12.010Z,25.81
2019-04-28T14:36:45.462Z,26.16
2019-04-28T14:39:14.763Z,25.69
2019-04-28T14:41:41.881Z,26.73
2019-04-28T14:44:12.881Z,26.62
2019-04-28T14:46:40.080Z,25.76
2019-04-28T14:49:10.010Z,26.08
2019-04-28T14:51:41.240Z,26.44
2019-04-28T14:54:18.288Z,26.34
2019-04-28T14:56:44.657Z,26.88
2019-04-28T14:59:15.545Z,26.24
2019-04-28T15:01:43.567Z,27.31
2019-04-28T15:04:14.611Z,26.78
2019-04-28T15:06:55.124Z,27.00
2019-04-28T15:09:14.063Z,27.99
2019-04-28T15:11:40.936Z,27.52
2019-04-28T15:14:09.518Z,27.36
2019-04-28T15:16:38.242Z,27.20
2019-04-28T15:19:05.192Z,27.58
2019-04-28T15:21:32.049Z,26.75
2019-04-28T15:24:01.437Z,26.80
2019-04-28T15:26:28.614Z,27.42
2019-04-28T15:28:57.779Z,27.52
2019-04-28T15:31:26.025Z,28.04
2019-04-28T15:33:55.410Z,28.13
2019-04-28T15:36:24.545Z,28.66
2019-04-28T15:38:53.670Z,28.36
2019-04-28T15:41:24.093Z,27.47
2019-04-28T15:43:51.199Z,27.60
2019-04-28T15:46:20.475Z,28.12
2019-04-28T15:48:47.251Z,28.58
2019-04-28T15:51:16.514Z,27.61
2019-04-28T15:53:45.142Z,28.28
2019-04-28T15:56:14.986Z,29.19
2019-04-28T15:58:43.904Z,29.16
2019-04-28T16:01:12.938Z,29.92
2019-04-28T16:03:43.319Z,30.65
2019-04-28T16:06:13.012Z,30.46
2019-04-28T16:08:42.371Z,30.83
2019-04-28T16:11:10.298Z,30.51
2019-04-28T16:13:38.615Z,30.28
2019-04-28T16:16:08.731Z,28.97
2019-04-28T16:18:37.126Z,29.32
2019-04-28T16:21:04.000Z,29.17
2019-04-28T16:23:33.274Z,29.07
2019-04-28T16:26:00.136Z,29.01
2019-04-28T16:28:26.868Z,28.86
2019-04-28T16:30:57.678Z,29.57
2019-04-28T16:33:24.831Z,29.52
2019-04-28T16:35:51.562Z,29.29
2019-04-28T16:38:21.934Z,29.40
2019-04-28T16:40:48.548Z,29.29
2019-04-28T16:43:15.603Z,29.65
2019-04-28T16:45:42.982Z,29.51
2019-04-28T16:48:10.205Z,29.50
2019-04-28T16:50:37.118Z,29.69
2019-04-28T16:53:05.546Z,29.53
2019-04-28T16:55:34.691Z,29.70
2019-04-28T16:58:02.619Z,29.27
2019-04-28T17:00:33.430Z,29.38
2019-04-28T17:03:00.056Z,29.65
2019-04-28T17:05:28.643Z,29.68
2019-04-28T17:07:55.027Z,30.53
2019-04-28T17:10:22.212Z,30.43
2019-04-28T17:12:51.284Z,30.19
2019-04-28T17:15:19.552Z,29.95
2019-04-28T17:17:48.397Z,30.22
2019-04-28T17:20:14.990Z,29.87
2019-04-28T17:22:45.438Z,30.52
2019-04-28T17:25:17.480Z,30.07
2019-04-28T17:27:43.074Z,30.47
2019-04-28T17:30:09.769Z,29.95
2019-04-28T17:32:37.518Z,30.39
2019-04-28T17:35:12.560Z,30.69
2019-04-28T17:37:37.692Z,30.52
2019-04-28T17:40:04.807Z,30.37
2019-04-28T17:42:32.426Z,30.61
2019-04-28T17:45:02.044Z,30.47
2019-04-28T17:47:33.295Z,30.47
2019-04-28T17:50:00.879Z,30.74
2019-04-28T17:52:30.063Z,31.14
2019-04-28T17:54:56.749Z,30.77
2019-04-28T17:57:23.337Z,30.82
2019-04-28T17:59:55.819Z,30.93
2019-04-28T18:02:24.621Z,30.88
2019-04-28T18:04:53.244Z,31.26
2019-04-28T18:07:27.027Z,31.38
2019-04-28T18:09:53.706Z,32.11
2019-04-28T18:12:28.633Z,32.00
2019-04-28T18:14:58.453Z,31.33
2019-04-28T18:17:26.448Z,31.26
2019-04-28T18:19:53.075Z,31.42
2019-04-28T18:22:22.589Z,31.52
2019-04-28T18:24:49.888Z,31.47
2019-04-28T18:27:16.510Z,31.76
2019-04-28T18:29:43.123Z,31.43
2019-04-28T18:32:13.789Z,31.61
2019-04-28T18:34:42.234Z,31.58
2019-04-28T18:37:12.277Z,31.80
2019-04-28T18:39:44.475Z,32.07
2019-04-28T18:42:11.281Z,31.84
2019-04-28T18:44:40.178Z,31.81
2019-04-28T18:47:06.484Z,31.72
2019-04-28T18:49:33.269Z,32.08
2019-04-28T18:51:59.973Z,31.66
2019-04-28T18:54:27.881Z,31.32
2019-04-28T18:56:54.468Z,32.09
2019-04-28T18:59:24.406Z,31.98
2019-04-28T19:01:52.149Z,31.88
2019-04-28T19:04:19.839Z,31.97
2019-04-28T19:06:46.914Z,31.98
2019-04-28T19:09:14.551Z,32.27
2019-04-28T19:11:41.450Z,31.93
2019-04-28T19:14:08.474Z,32.02
2019-04-28T19:16:35.984Z,32.32
2019-04-28T19:19:03.872Z,31.80
2019-04-28T19:21:31.449Z,32.28
2019-04-28T19:23:58.087Z,32.37
2019-04-28T19:26:25.690Z,32.34
2019-04-28T19:28:55.308Z,32.34
2019-04-28T19:31:32.957Z,32.27
2019-04-28T19:34:00.497Z,31.60
2019-04-28T19:36:28.370Z,32.18
2019-04-28T19:39:02.968Z,32.15
2019-04-28T19:41:23.589Z,32.38
2019-04-28T19:43:50.259Z,32.11
2019-04-28T19:46:16.816Z,32.47
2019-04-28T19:48:43.685Z,32.46
2019-04-28T19:51:10.317Z,32.49
2019-04-28T19:53:37.173Z,32.15
2019-04-28T19:56:04.477Z,32.25
2019-04-28T19:58:31.104Z,31.82
2019-04-28T20:00:57.960Z,32.20
2019-04-28T20:03:24.673Z,32.37
2019-04-28T20:05:52.151Z,32.67
2019-04-28T20:08:18.905Z,32.42
2019-04-28T20:10:45.790Z,32.41
2019-04-28T20:13:12.426Z,33.32
2019-04-28T20:15:39.628Z,33.33
2019-04-28T20:18:08.333Z,32.92
2019-04-28T20:20:34.979Z,32.64
2019-04-28T20:23:03.777Z,32.03
2019-04-28T20:25:30.400Z,32.39
2019-04-28T20:27:57.731Z,32.80
2019-04-28T20:30:24.320Z,32.63
2019-04-28T20:32:50.928Z,32.49
2019-04-28T20:35:17.610Z,32.66
2019-04-28T20:37:44.474Z,33.13
2019-04-28T20:40:11.077Z,32.65
2019-04-28T20:42:38.073Z,32.71
2019-04-28T20:45:04.665Z,32.76
2019-04-28T20:47:32.768Z,33.41
2019-04-28T20:49:59.470Z,32.49
2019-04-28T20:52:26.062Z,33.50
2019-04-28T20:54:52.973Z,33.14
2019-04-28T20:57:20.044Z,32.85
2019-04-28T20:59:46.805Z,32.83
2019-04-28T21:02:13.682Z,32.87
2019-04-28T21:04:40.339Z,32.87
2019-04-28T21:07:07.011Z,32.35
2019-04-28T21:09:33.667Z,32.42
2019-04-28T21:12:00.561Z,32.16
2019-04-28T21:14:27.654Z,33.01
2019-04-28T21:16:54.673Z,32.55
2019-04-28T21:19:21.273Z,33.27
2019-04-28T21:21:48.130Z,33.62
2019-04-28T21:24:16.912Z,33.19
2019-04-28T21:26:43.347Z,33.15
2019-04-28T21:29:09.996Z,32.51
2019-04-28T21:31:36.639Z,32.53
2019-04-28T21:34:03.257Z,33.35
2019-04-28T21:36:30.054Z,33.32
2019-04-28T21:38:56.970Z,33.85
2019-04-28T21:41:23.597Z,32.71
2019-04-28T21:43:50.183Z,33.33
2019-04-28T21:46:17.095Z,33.41
2019-04-28T21:48:44.000Z,33.46
2019-04-28T21:51:12.061Z,33.95
2019-04-28T21:53:40.416Z,34.36
2019-04-28T21:56:07.039Z,34.49
2019-04-28T21:58:33.840Z,34.96
2019-04-28T22:01:00.661Z,34.17
2019-04-28T22:03:27.310Z,34.25
2019-04-28T22:05:54.146Z,34.67
2019-04-28T22:08:20.891Z,34.49
2019-04-28T22:10:47.694Z,34.87
2019-04-28T22:13:14.463Z,35.05
2019-04-28T22:15:41.531Z,34.68
2019-04-28T22:18:08.830Z,34.90
2019-04-28T22:20:35.448Z,35.36
2019-04-28T22:23:02.348Z,35.39
2019-04-28T22:25:29.375Z,35.90
2019-04-28T22:27:57.269Z,35.58
2019-04-28T22:30:24.108Z,35.14
2019-04-28T22:32:51.857Z,35.93
2019-04-28T22:35:18.734Z,35.66
2019-04-28T22:37:45.635Z,36.76
2019-04-28T22:40:16.713Z,37.01
2019-04-28T22:42:44.604Z,36.39
2019-04-28T22:45:11.459Z,36.33
2019-04-28T22:47:40.438Z,36.41
2019-04-28T22:50:07.605Z,36.01
2019-04-28T22:52:36.162Z,36.91
2019-04-28T22:55:03.160Z,37.09
2019-04-28T22:57:31.533Z,37.08
2019-04-28T23:00:00.413Z,37.26
2019-04-28T23:02:29.124Z,37.95
2019-04-28T23:04:55.975Z,37.96
2019-04-28T23:07:24.073Z,37.63
2019-04-28T23:09:52.822Z,37.73
2019-04-28T23:12:19.403Z,37.50
2019-04-28T23:14:48.213Z,38.17
2019-04-28T23:17:18.471Z,37.69
2019-04-28T23:19:45.063Z,37.59
2019-04-28T23:22:14.082Z,37.45
2019-04-28T23:24:43.352Z,37.32
2019-04-28T23:27:10.343Z,37.30
2019-04-28T23:29:37.001Z,37.33
2019-04-28T23:32:07.955Z,36.87
2019-04-28T23:34:35.111Z,37.13
2019-04-28T23:37:02.272Z,37.72
2019-04-28T23:39:31.330Z,37.56
2019-04-28T23:41:57.927Z,38.01
2019-04-28T23:44:26.709Z,37.26
2019-04-28T23:46:56.230Z,37.69
2019-04-28T23:49:25.431Z,37.37
2019-04-28T23:51:52.157Z,37.51
2019-04-28T23:54:22.394Z,37.85
2019-04-28T23:56:51.320Z,37.26
2019-04-28T23:59:20.037Z,37.94
